Terminal Aerodrome Forecast
Issued by NWS

Current Version | Previous Version | Graphics & Text | Print | Product List | Glossary On
Versions: 1 2 3 4 5 6 7 8 9 10 11 12 13 14 15 16 17 18 19 20
000
FTUS41 KILN 172101 AAA
TAFLUK
TAF AMD
KLUK 172101Z 1721/1818 20005KT P6SM OVC050
     FM180200 19004KT P6SM OVC026
     FM180700 21004KT P6SM -DZ OVC011
     FM181000 22004KT P6SM -DZ OVC009=

USA.gov is the U.S. government's official web portal to all federal, state and local government web resources and services.